Kunming Wujiaba International Airport

Airport
ICAO code: 
ZPPP
IATA Code: 
KMG
Summary
ICAO Region: 
APAC
Territory: 
Location: 
Kunming, Yunnan,
Serving: 
Kunming
Elevation: 
6217 ft
Coordinates: 
Aerial View: 
24° 59' 32.51" N, 102° 44' 36.73" E
Airport RE: 
Hot and High Operations
Metar
Observation
ZPPP 021500Z 21004MPS 9999 SCT023 OVC040 09/06 Q1028 NOSIG
Station
Kunming
Date/Time
2021-12-02 15:00:00
Wind direction
210°
Lowest cloud amount
scattered clouds
Temperature
9°C
Dew point
6°C
Humidity
81%
QNH
1028 hPa
Weather condition
n/a

Description

Kunming Wujiaba International Airport is an airport located in Kunming, Yunnan, People's Republic of China. The airport is located 4 km south-east of metropolitan Kunming.

Climatology

Located at an elevation of 1,890 m on the Yungui Plateau with low latitude and high elevation, Kunming has one of the mildest climates in China, characterised by short, cool dry winters with mild days and crisp nights, and long, warm and humid summers, but much cooler than the lowlands. The weather never gets very hot in summer; the temperature has exceeded 30 °C only on a handful of occasions. However, freak snowfalls occur in occasional winters. Controlled by a subtropical highland climate (Köppen climate classification Cwb)., average highs are around 15 °C in winter and 24 °C in summer.

Runways

Designator Length Width Surface Rops
3/21 3400 45 CON Yes/Yes
Airport map: 
Aerial View: 

SKYbrary Partners:

Safety knowledge contributed by: